sensor_id;sensor_type;location;lat;lon;timestamp;P1;durP1;ratioP1;P2;durP2;ratioP2
13927;SDS011;7036;50.834;4.718;2023-04-24T00:01:00;3.25;;;2.70;;
13927;SDS011;7036;50.834;4.718;2023-04-24T00:03:27;2.72;;;2.50;;
13927;SDS011;7036;50.834;4.718;2023-04-24T00:05:55;3.28;;;2.65;;
13927;SDS011;7036;50.834;4.718;2023-04-24T00:08:23;3.67;;;2.72;;
13927;SDS011;7036;50.834;4.718;2023-04-24T00:10:51;3.38;;;2.67;;
13927;SDS011;7036;50.834;4.718;2023-04-24T00:13:18;3.30;;;2.65;;
13927;SDS011;7036;50.834;4.718;2023-04-24T00:15:46;4.15;;;2.70;;
13927;SDS011;7036;50.834;4.718;2023-04-24T00:18:14;2.83;;;2.55;;
13927;SDS011;7036;50.834;4.718;2023-04-24T00:20:42;4.57;;;3.00;;
13927;SDS011;7036;50.834;4.718;2023-04-24T00:23:10;3.60;;;3.28;;
13927;SDS011;7036;50.834;4.718;2023-04-24T00:25:38;4.63;;;3.17;;
13927;SDS011;7036;50.834;4.718;2023-04-24T00:28:07;5.53;;;3.28;;
13927;SDS011;7036;50.834;4.718;2023-04-24T00:30:34;4.03;;;3.07;;
13927;SDS011;7036;50.834;4.718;2023-04-24T00:33:02;4.60;;;3.15;;
13927;SDS011;7036;50.834;4.718;2023-04-24T00:35:29;2.92;;;2.58;;
13927;SDS011;7036;50.834;4.718;2023-04-24T00:37:57;3.65;;;3.00;;
13927;SDS011;7036;50.834;4.718;2023-04-24T00:40:24;2.83;;;2.60;;
13927;SDS011;7036;50.834;4.718;2023-04-24T00:42:51;4.68;;;3.08;;
13927;SDS011;7036;50.834;4.718;2023-04-24T00:45:19;5.63;;;3.10;;
13927;SDS011;7036;50.834;4.718;2023-04-24T00:47:48;4.10;;;3.35;;
13927;SDS011;7036;50.834;4.718;2023-04-24T00:50:15;4.22;;;2.72;;
13927;SDS011;7036;50.834;4.718;2023-04-24T00:52:43;3.53;;;3.10;;
13927;SDS011;7036;50.834;4.718;2023-04-24T00:55:10;3.10;;;2.80;;
13927;SDS011;7036;50.834;4.718;2023-04-24T00:57:38;6.40;;;3.30;;
13927;SDS011;7036;50.834;4.718;2023-04-24T01:00:06;4.25;;;3.05;;
13927;SDS011;7036;50.834;4.718;2023-04-24T01:02:34;3.80;;;3.20;;
13927;SDS011;7036;50.834;4.718;2023-04-24T01:05:01;3.57;;;2.97;;
13927;SDS011;7036;50.834;4.718;2023-04-24T01:07:28;5.07;;;3.45;;
13927;SDS011;7036;50.834;4.718;2023-04-24T01:09:55;4.13;;;3.50;;
13927;SDS011;7036;50.834;4.718;2023-04-24T01:12:23;3.40;;;3.10;;
13927;SDS011;7036;50.834;4.718;2023-04-24T01:14:51;3.22;;;2.92;;
13927;SDS011;7036;50.834;4.718;2023-04-24T01:17:19;4.45;;;3.40;;
13927;SDS011;7036;50.834;4.718;2023-04-24T01:19:47;4.03;;;2.97;;
13927;SDS011;7036;50.834;4.718;2023-04-24T01:22:15;3.85;;;3.10;;
13927;SDS011;7036;50.834;4.718;2023-04-24T01:24:42;3.95;;;3.20;;
13927;SDS011;7036;50.834;4.718;2023-04-24T01:27:10;3.60;;;3.30;;
13927;SDS011;7036;50.834;4.718;2023-04-24T01:29:38;4.25;;;3.65;;
13927;SDS011;7036;50.834;4.718;2023-04-24T01:32:06;5.18;;;3.38;;
13927;SDS011;7036;50.834;4.718;2023-04-24T01:34:33;4.57;;;3.13;;
13927;SDS011;7036;50.834;4.718;2023-04-24T01:37:01;5.82;;;3.35;;
13927;SDS011;7036;50.834;4.718;2023-04-24T01:39:29;3.80;;;3.30;;
13927;SDS011;7036;50.834;4.718;2023-04-24T01:41:57;3.92;;;3.25;;
13927;SDS011;7036;50.834;4.718;2023-04-24T01:44:25;6.40;;;3.90;;
13927;SDS011;7036;50.834;4.718;2023-04-24T01:46:54;4.68;;;3.55;;
13927;SDS011;7036;50.834;4.718;2023-04-24T01:49:21;5.17;;;3.27;;
13927;SDS011;7036;50.834;4.718;2023-04-24T01:51:48;5.63;;;3.38;;
13927;SDS011;7036;50.834;4.718;2023-04-24T01:54:16;5.53;;;3.28;;
13927;SDS011;7036;50.834;4.718;2023-04-24T01:56:44;4.32;;;3.38;;
13927;SDS011;7036;50.834;4.718;2023-04-24T01:59:12;3.97;;;3.58;;
13927;SDS011;7036;50.834;4.718;2023-04-24T02:01:38;4.00;;;3.47;;
13927;SDS011;7036;50.834;4.718;2023-04-24T02:04:06;4.75;;;3.60;;
13927;SDS011;7036;50.834;4.718;2023-04-24T02:06:35;5.03;;;3.80;;
13927;SDS011;7036;50.834;4.718;2023-04-24T02:09:03;3.67;;;3.37;;
13927;SDS011;7036;50.834;4.718;2023-04-24T02:11:31;5.00;;;3.50;;
13927;SDS011;7036;50.834;4.718;2023-04-24T02:13:57;4.03;;;3.17;;
13927;SDS011;7036;50.834;4.718;2023-04-24T02:16:25;4.05;;;3.15;;
13927;SDS011;7036;50.834;4.718;2023-04-24T02:18:53;3.33;;;3.00;;
13927;SDS011;7036;50.834;4.718;2023-04-24T02:21:21;3.60;;;3.30;;
13927;SDS011;7036;50.834;4.718;2023-04-24T02:23:48;4.45;;;4.05;;
13927;SDS011;7036;50.834;4.718;2023-04-24T02:26:15;5.22;;;3.67;;
13927;SDS011;7036;50.834;4.718;2023-04-24T02:28:43;5.35;;;3.55;;
13927;SDS011;7036;50.834;4.718;2023-04-24T02:31:10;5.55;;;3.67;;
13927;SDS011;7036;50.834;4.718;2023-04-24T02:33:38;4.47;;;4.07;;
13927;SDS011;7036;50.834;4.718;2023-04-24T02:36:05;3.83;;;3.42;;
13927;SDS011;7036;50.834;4.718;2023-04-24T02:38:33;5.00;;;3.88;;
13927;SDS011;7036;50.834;4.718;2023-04-24T02:41:01;7.00;;;3.53;;
13927;SDS011;7036;50.834;4.718;2023-04-24T02:43:28;4.47;;;3.53;;
13927;SDS011;7036;50.834;4.718;2023-04-24T02:45:56;4.10;;;3.70;;
13927;SDS011;7036;50.834;4.718;2023-04-24T02:48:24;3.90;;;3.40;;
13927;SDS011;7036;50.834;4.718;2023-04-24T02:50:52;3.90;;;3.50;;
13927;SDS011;7036;50.834;4.718;2023-04-24T02:53:20;5.25;;;4.30;;
13927;SDS011;7036;50.834;4.718;2023-04-24T02:55:49;4.97;;;3.60;;
13927;SDS011;7036;50.834;4.718;2023-04-24T02:58:15;4.47;;;4.03;;
13927;SDS011;7036;50.834;4.718;2023-04-24T03:00:43;5.82;;;3.55;;
13927;SDS011;7036;50.834;4.718;2023-04-24T03:03:11;4.05;;;3.72;;
13927;SDS011;7036;50.834;4.718;2023-04-24T03:05:38;4.15;;;3.75;;
13927;SDS011;7036;50.834;4.718;2023-04-24T03:08:06;5.00;;;3.90;;
13927;SDS011;7036;50.834;4.718;2023-04-24T03:10:34;4.07;;;3.47;;
13927;SDS011;7036;50.834;4.718;2023-04-24T03:13:02;4.47;;;3.17;;
13927;SDS011;7036;50.834;4.718;2023-04-24T03:15:30;4.00;;;3.60;;
13927;SDS011;7036;50.834;4.718;2023-04-24T03:17:58;4.97;;;3.58;;
13927;SDS011;7036;50.834;4.718;2023-04-24T03:20:27;4.18;;;3.80;;
13927;SDS011;7036;50.834;4.718;2023-04-24T03:22:54;4.03;;;3.40;;
13927;SDS011;7036;50.834;4.718;2023-04-24T03:25:22;3.42;;;3.13;;
13927;SDS011;7036;50.834;4.718;2023-04-24T03:27:50;4.22;;;3.63;;
13927;SDS011;7036;50.834;4.718;2023-04-24T03:30:18;4.70;;;3.75;;
13927;SDS011;7036;50.834;4.718;2023-04-24T03:32:46;4.32;;;3.40;;
13927;SDS011;7036;50.834;4.718;2023-04-24T03:35:14;4.72;;;3.72;;
13927;SDS011;7036;50.834;4.718;2023-04-24T03:37:41;4.67;;;3.63;;
13927;SDS011;7036;50.834;4.718;2023-04-24T03:40:08;3.97;;;3.58;;
13927;SDS011;7036;50.834;4.718;2023-04-24T03:42:36;4.72;;;4.05;;
13927;SDS011;7036;50.834;4.718;2023-04-24T03:45:04;3.70;;;3.33;;
13927;SDS011;7036;50.834;4.718;2023-04-24T03:47:31;5.22;;;3.67;;
13927;SDS011;7036;50.834;4.718;2023-04-24T03:49:59;4.07;;;3.15;;
13927;SDS011;7036;50.834;4.718;2023-04-24T03:52:27;4.43;;;3.53;;
13927;SDS011;7036;50.834;4.718;2023-04-24T03:54:55;3.70;;;3.40;;
13927;SDS011;7036;50.834;4.718;2023-04-24T03:57:22;3.47;;;3.17;;
13927;SDS011;7036;50.834;4.718;2023-04-24T03:59:50;4.35;;;3.55;;
13927;SDS011;7036;50.834;4.718;2023-04-24T04:02:20;3.70;;;3.17;;
13927;SDS011;7036;50.834;4.718;2023-04-24T04:04:46;4.00;;;3.70;;
13927;SDS011;7036;50.834;4.718;2023-04-24T04:07:15;4.03;;;3.58;;
13927;SDS011;7036;50.834;4.718;2023-04-24T04:09:42;3.33;;;3.00;;
13927;SDS011;7036;50.834;4.718;2023-04-24T04:12:09;4.13;;;3.37;;
13927;SDS011;7036;50.834;4.718;2023-04-24T04:14:36;5.63;;;3.30;;
13927;SDS011;7036;50.834;4.718;2023-04-24T04:17:04;3.30;;;3.00;;
13927;SDS011;7036;50.834;4.718;2023-04-24T04:19:31;3.72;;;3.42;;
13927;SDS011;7036;50.834;4.718;2023-04-24T04:21:59;3.95;;;3.40;;
13927;SDS011;7036;50.834;4.718;2023-04-24T04:24:27;4.57;;;3.45;;
13927;SDS011;7036;50.834;4.718;2023-04-24T04:26:54;3.50;;;3.20;;
13927;SDS011;7036;50.834;4.718;2023-04-24T04:29:23;3.50;;;3.05;;
13927;SDS011;7036;50.834;4.718;2023-04-24T04:31:49;4.10;;;2.90;;
13927;SDS011;7036;50.834;4.718;2023-04-24T04:34:17;3.47;;;3.17;;
13927;SDS011;7036;50.834;4.718;2023-04-24T04:36:45;3.70;;;3.40;;
13927;SDS011;7036;50.834;4.718;2023-04-24T04:39:12;3.58;;;3.20;;
13927;SDS011;7036;50.834;4.718;2023-04-24T04:41:40;3.67;;;3.08;;
13927;SDS011;7036;50.834;4.718;2023-04-24T04:44:07;4.82;;;3.70;;
13927;SDS011;7036;50.834;4.718;2023-04-24T04:46:35;3.40;;;3.10;;
13927;SDS011;7036;50.834;4.718;2023-04-24T04:49:02;5.50;;;3.38;;
13927;SDS011;7036;50.834;4.718;2023-04-24T04:51:30;3.10;;;2.90;;
13927;SDS011;7036;50.834;4.718;2023-04-24T04:53:57;3.20;;;2.90;;
13927;SDS011;7036;50.834;4.718;2023-04-24T04:56:26;2.85;;;2.63;;
13927;SDS011;7036;50.834;4.718;2023-04-24T04:58:54;3.08;;;2.70;;
13927;SDS011;7036;50.834;4.718;2023-04-24T05:01:20;3.50;;;3.10;;
13927;SDS011;7036;50.834;4.718;2023-04-24T05:03:48;3.55;;;3.13;;
13927;SDS011;7036;50.834;4.718;2023-04-24T05:06:15;3.92;;;3.00;;
13927;SDS011;7036;50.834;4.718;2023-04-24T05:08:43;3.42;;;2.97;;
13927;SDS011;7036;50.834;4.718;2023-04-24T05:11:11;3.03;;;2.67;;
13927;SDS011;7036;50.834;4.718;2023-04-24T05:13:38;3.50;;;3.00;;
13927;SDS011;7036;50.834;4.718;2023-04-24T05:16:06;4.35;;;2.97;;
13927;SDS011;7036;50.834;4.718;2023-04-24T05:18:33;2.97;;;2.70;;
13927;SDS011;7036;50.834;4.718;2023-04-24T05:21:01;3.20;;;2.90;;
13927;SDS011;7036;50.834;4.718;2023-04-24T05:23:28;2.92;;;2.65;;
13927;SDS011;7036;50.834;4.718;2023-04-24T05:25:56;3.55;;;3.25;;
13927;SDS011;7036;50.834;4.718;2023-04-24T05:28:23;3.13;;;2.83;;
13927;SDS011;7036;50.834;4.718;2023-04-24T05:30:52;4.15;;;2.53;;
13927;SDS011;7036;50.834;4.718;2023-04-24T05:33:19;3.27;;;2.80;;
13927;SDS011;7036;50.834;4.718;2023-04-24T05:35:47;2.85;;;2.53;;
13927;SDS011;7036;50.834;4.718;2023-04-24T05:38:14;3.22;;;2.90;;
13927;SDS011;7036;50.834;4.718;2023-04-24T05:40:42;2.90;;;2.70;;
13927;SDS011;7036;50.834;4.718;2023-04-24T05:43:09;2.92;;;2.70;;
13927;SDS011;7036;50.834;4.718;2023-04-24T05:45:36;2.80;;;2.60;;
13927;SDS011;7036;50.834;4.718;2023-04-24T05:48:04;3.15;;;2.67;;
13927;SDS011;7036;50.834;4.718;2023-04-24T05:50:31;2.88;;;2.65;;
13927;SDS011;7036;50.834;4.718;2023-04-24T05:52:59;3.30;;;2.50;;
13927;SDS011;7036;50.834;4.718;2023-04-24T05:55:26;3.47;;;3.05;;
13927;SDS011;7036;50.834;4.718;2023-04-24T05:57:54;3.55;;;3.10;;
13927;SDS011;7036;50.834;4.718;2023-04-24T06:00:21;3.33;;;2.95;;
13927;SDS011;7036;50.834;4.718;2023-04-24T06:02:48;2.90;;;2.65;;
13927;SDS011;7036;50.834;4.718;2023-04-24T06:05:15;3.53;;;2.65;;
13927;SDS011;7036;50.834;4.718;2023-04-24T06:07:44;3.15;;;2.85;;
13927;SDS011;7036;50.834;4.718;2023-04-24T06:10:11;2.97;;;2.78;;
13927;SDS011;7036;50.834;4.718;2023-04-24T06:12:39;3.42;;;3.13;;
13927;SDS011;7036;50.834;4.718;2023-04-24T06:15:06;3.37;;;3.07;;
13927;SDS011;7036;50.834;4.718;2023-04-24T06:17:33;3.50;;;3.13;;
13927;SDS011;7036;50.834;4.718;2023-04-24T06:20:01;2.78;;;2.58;;
13927;SDS011;7036;50.834;4.718;2023-04-24T06:22:29;3.97;;;3.17;;
13927;SDS011;7036;50.834;4.718;2023-04-24T06:24:57;2.70;;;2.50;;
13927;SDS011;7036;50.834;4.718;2023-04-24T06:27:24;3.05;;;2.75;;
13927;SDS011;7036;50.834;4.718;2023-04-24T06:29:51;3.00;;;2.80;;
13927;SDS011;7036;50.834;4.718;2023-04-24T06:32:19;4.78;;;3.63;;
13927;SDS011;7036;50.834;4.718;2023-04-24T06:34:46;4.95;;;3.13;;
13927;SDS011;7036;50.834;4.718;2023-04-24T06:37:14;3.88;;;3.15;;
13927;SDS011;7036;50.834;4.718;2023-04-24T06:39:42;3.28;;;2.97;;
13927;SDS011;7036;50.834;4.718;2023-04-24T06:42:09;3.47;;;3.00;;
13927;SDS011;7036;50.834;4.718;2023-04-24T06:44:37;3.72;;;3.42;;
13927;SDS011;7036;50.834;4.718;2023-04-24T06:47:05;3.75;;;3.30;;
13927;SDS011;7036;50.834;4.718;2023-04-24T06:49:34;3.55;;;3.25;;
13927;SDS011;7036;50.834;4.718;2023-04-24T06:52:00;4.10;;;3.38;;
13927;SDS011;7036;50.834;4.718;2023-04-24T06:54:29;3.67;;;3.25;;
13927;SDS011;7036;50.834;4.718;2023-04-24T06:56:56;4.47;;;3.53;;
13927;SDS011;7036;50.834;4.718;2023-04-24T06:59:24;3.72;;;2.85;;
13927;SDS011;7036;50.834;4.718;2023-04-24T07:01:52;3.70;;;3.40;;
13927;SDS011;7036;50.834;4.718;2023-04-24T07:04:19;4.72;;;2.90;;
13927;SDS011;7036;50.834;4.718;2023-04-24T07:06:47;3.28;;;2.80;;
13927;SDS011;7036;50.834;4.718;2023-04-24T07:09:15;4.65;;;3.42;;
13927;SDS011;7036;50.834;4.718;2023-04-24T07:11:45;4.18;;;2.75;;
13927;SDS011;7036;50.834;4.718;2023-04-24T07:14:12;4.87;;;3.40;;
13927;SDS011;7036;50.834;4.718;2023-04-24T07:16:39;4.32;;;3.60;;
13927;SDS011;7036;50.834;4.718;2023-04-24T07:19:07;4.40;;;3.60;;
13927;SDS011;7036;50.834;4.718;2023-04-24T07:21:35;5.03;;;3.58;;
13927;SDS011;7036;50.834;4.718;2023-04-24T07:24:05;6.00;;;3.40;;
13927;SDS011;7036;50.834;4.718;2023-04-24T07:26:31;3.87;;;3.43;;
13927;SDS011;7036;50.834;4.718;2023-04-24T07:29:00;4.47;;;4.07;;
13927;SDS011;7036;50.834;4.718;2023-04-24T07:31:27;3.83;;;3.37;;
13927;SDS011;7036;50.834;4.718;2023-04-24T07:33:54;6.78;;;3.70;;
13927;SDS011;7036;50.834;4.718;2023-04-24T07:36:22;7.57;;;3.75;;
13927;SDS011;7036;50.834;4.718;2023-04-24T07:38:50;8.60;;;4.13;;
13927;SDS011;7036;50.834;4.718;2023-04-24T07:41:18;8.23;;;3.53;;
13927;SDS011;7036;50.834;4.718;2023-04-24T07:43:45;6.13;;;3.85;;
13927;SDS011;7036;50.834;4.718;2023-04-24T07:46:13;7.03;;;4.40;;
13927;SDS011;7036;50.834;4.718;2023-04-24T07:48:41;6.38;;;4.13;;
13927;SDS011;7036;50.834;4.718;2023-04-24T07:51:09;5.43;;;3.60;;
13927;SDS011;7036;50.834;4.718;2023-04-24T07:53:37;9.07;;;3.95;;
13927;SDS011;7036;50.834;4.718;2023-04-24T07:56:05;6.93;;;3.72;;
13927;SDS011;7036;50.834;4.718;2023-04-24T07:58:33;7.43;;;3.33;;
13927;SDS011;7036;50.834;4.718;2023-04-24T08:01:02;5.05;;;4.20;;
13927;SDS011;7036;50.834;4.718;2023-04-24T08:03:29;6.73;;;3.63;;
13927;SDS011;7036;50.834;4.718;2023-04-24T08:05:57;7.05;;;3.88;;
13927;SDS011;7036;50.834;4.718;2023-04-24T08:08:24;6.63;;;3.75;;
13927;SDS011;7036;50.834;4.718;2023-04-24T08:10:51;8.05;;;4.10;;
13927;SDS011;7036;50.834;4.718;2023-04-24T08:13:19;6.72;;;3.90;;
13927;SDS011;7036;50.834;4.718;2023-04-24T08:15:47;5.65;;;3.50;;
13927;SDS011;7036;50.834;4.718;2023-04-24T08:18:15;6.00;;;3.80;;
13927;SDS011;7036;50.834;4.718;2023-04-24T08:20:43;7.72;;;3.78;;
13927;SDS011;7036;50.834;4.718;2023-04-24T08:23:11;5.25;;;3.25;;
13927;SDS011;7036;50.834;4.718;2023-04-24T08:25:39;4.63;;;3.40;;
13927;SDS011;7036;50.834;4.718;2023-04-24T08:28:06;8.30;;;4.00;;
13927;SDS011;7036;50.834;4.718;2023-04-24T08:30:33;7.03;;;3.75;;
13927;SDS011;7036;50.834;4.718;2023-04-24T08:33:01;5.93;;;4.50;;
13927;SDS011;7036;50.834;4.718;2023-04-24T08:35:28;7.45;;;3.70;;
13927;SDS011;7036;50.834;4.718;2023-04-24T08:37:55;8.65;;;3.90;;
13927;SDS011;7036;50.834;4.718;2023-04-24T08:40:27;8.13;;;3.70;;
13927;SDS011;7036;50.834;4.718;2023-04-24T08:42:51;10.93;;;3.45;;
13927;SDS011;7036;50.834;4.718;2023-04-24T08:45:19;7.15;;;4.15;;
13927;SDS011;7036;50.834;4.718;2023-04-24T08:47:46;6.72;;;4.00;;
13927;SDS011;7036;50.834;4.718;2023-04-24T08:50:13;6.60;;;3.70;;
13927;SDS011;7036;50.834;4.718;2023-04-24T08:52:42;9.98;;;4.25;;
13927;SDS011;7036;50.834;4.718;2023-04-24T08:55:09;7.23;;;4.00;;
13927;SDS011;7036;50.834;4.718;2023-04-24T08:57:37;8.45;;;4.30;;
13927;SDS011;7036;50.834;4.718;2023-04-24T09:00:04;7.33;;;3.87;;
13927;SDS011;7036;50.834;4.718;2023-04-24T09:02:31;6.72;;;3.67;;
13927;SDS011;7036;50.834;4.718;2023-04-24T09:04:58;9.45;;;4.57;;
13927;SDS011;7036;50.834;4.718;2023-04-24T09:07:26;9.52;;;3.83;;
13927;SDS011;7036;50.834;4.718;2023-04-24T09:09:54;6.88;;;3.75;;
13927;SDS011;7036;50.834;4.718;2023-04-24T09:12:21;11.48;;;3.75;;
13927;SDS011;7036;50.834;4.718;2023-04-24T09:14:48;8.80;;;4.18;;
13927;SDS011;7036;50.834;4.718;2023-04-24T09:17:15;5.90;;;3.75;;
13927;SDS011;7036;50.834;4.718;2023-04-24T09:19:42;7.55;;;3.95;;
13927;SDS011;7036;50.834;4.718;2023-04-24T09:22:10;11.05;;;4.40;;
13927;SDS011;7036;50.834;4.718;2023-04-24T09:24:37;9.00;;;4.15;;
13927;SDS011;7036;50.834;4.718;2023-04-24T09:27:05;5.22;;;3.45;;
13927;SDS011;7036;50.834;4.718;2023-04-24T09:29:32;7.78;;;3.58;;
13927;SDS011;7036;50.834;4.718;2023-04-24T09:31:59;6.38;;;4.18;;
13927;SDS011;7036;50.834;4.718;2023-04-24T09:34:27;10.48;;;4.47;;
13927;SDS011;7036;50.834;4.718;2023-04-24T09:36:54;7.70;;;3.92;;
13927;SDS011;7036;50.834;4.718;2023-04-24T09:39:21;7.47;;;3.40;;
13927;SDS011;7036;50.834;4.718;2023-04-24T09:44:20;6.70;;;4.15;;
13927;SDS011;7036;50.834;4.718;2023-04-24T09:46:49;6.47;;;3.60;;
13927;SDS011;7036;50.834;4.718;2023-04-24T09:49:14;7.13;;;3.47;;
13927;SDS011;7036;50.834;4.718;2023-04-24T09:51:41;6.15;;;3.50;;
13927;SDS011;7036;50.834;4.718;2023-04-24T09:54:16;7.13;;;3.10;;
13927;SDS011;7036;50.834;4.718;2023-04-24T09:56:46;8.10;;;4.03;;
13927;SDS011;7036;50.834;4.718;2023-04-24T09:59:12;9.03;;;3.60;;
13927;SDS011;7036;50.834;4.718;2023-04-24T10:01:39;5.82;;;3.53;;
13927;SDS011;7036;50.834;4.718;2023-04-24T10:04:06;6.68;;;3.58;;
13927;SDS011;7036;50.834;4.718;2023-04-24T10:06:34;8.18;;;3.70;;
13927;SDS011;7036;50.834;4.718;2023-04-24T10:09:01;6.88;;;3.50;;
13927;SDS011;7036;50.834;4.718;2023-04-24T10:11:28;10.38;;;3.58;;
13927;SDS011;7036;50.834;4.718;2023-04-24T10:13:55;5.40;;;3.65;;
13927;SDS011;7036;50.834;4.718;2023-04-24T10:16:22;7.13;;;3.28;;
13927;SDS011;7036;50.834;4.718;2023-04-24T10:18:50;8.07;;;3.83;;
13927;SDS011;7036;50.834;4.718;2023-04-24T10:21:17;11.60;;;3.50;;
13927;SDS011;7036;50.834;4.718;2023-04-24T10:23:44;9.82;;;3.78;;
13927;SDS011;7036;50.834;4.718;2023-04-24T10:26:15;10.23;;;3.60;;
13927;SDS011;7036;50.834;4.718;2023-04-24T10:28:41;6.10;;;3.67;;
13927;SDS011;7036;50.834;4.718;2023-04-24T10:31:09;9.65;;;3.40;;
13927;SDS011;7036;50.834;4.718;2023-04-24T10:33:37;5.75;;;3.17;;
13927;SDS011;7036;50.834;4.718;2023-04-24T10:36:05;7.38;;;2.80;;
13927;SDS011;7036;50.834;4.718;2023-04-24T10:38:33;9.95;;;2.80;;
13927;SDS011;7036;50.834;4.718;2023-04-24T10:41:08;6.85;;;2.90;;
13927;SDS011;7036;50.834;4.718;2023-04-24T10:43:35;7.87;;;3.10;;
13927;SDS011;7036;50.834;4.718;2023-04-24T10:46:02;5.43;;;3.23;;
13927;SDS011;7036;50.834;4.718;2023-04-24T10:48:28;6.10;;;2.95;;
13927;SDS011;7036;50.834;4.718;2023-04-24T10:50:56;7.82;;;3.58;;
13927;SDS011;7036;50.834;4.718;2023-04-24T10:53:23;9.02;;;3.72;;
13927;SDS011;7036;50.834;4.718;2023-04-24T10:55:51;7.75;;;3.53;;
13927;SDS011;7036;50.834;4.718;2023-04-24T10:58:22;8.68;;;3.58;;
13927;SDS011;7036;50.834;4.718;2023-04-24T11:00:58;7.00;;;3.17;;
13927;SDS011;7036;50.834;4.718;2023-04-24T11:03:28;6.63;;;3.13;;
13927;SDS011;7036;50.834;4.718;2023-04-24T11:08:45;9.37;;;3.07;;
13927;SDS011;7036;50.834;4.718;2023-04-24T11:11:12;5.27;;;3.17;;
13927;SDS011;7036;50.834;4.718;2023-04-24T11:16:27;7.00;;;2.80;;
13927;SDS011;7036;50.834;4.718;2023-04-24T11:19:04;4.87;;;3.30;;
13927;SDS011;7036;50.834;4.718;2023-04-24T11:21:27;7.13;;;3.07;;
13927;SDS011;7036;50.834;4.718;2023-04-24T11:23:54;6.70;;;3.53;;
13927;SDS011;7036;50.834;4.718;2023-04-24T11:26:21;5.30;;;2.60;;
13927;SDS011;7036;50.834;4.718;2023-04-24T11:28:50;6.07;;;3.10;;
13927;SDS011;7036;50.834;4.718;2023-04-24T11:31:50;6.88;;;3.33;;
13927;SDS011;7036;50.834;4.718;2023-04-24T11:34:11;4.47;;;2.60;;
13927;SDS011;7036;50.834;4.718;2023-04-24T11:36:37;4.47;;;2.57;;
13927;SDS011;7036;50.834;4.718;2023-04-24T11:39:04;3.90;;;2.80;;
13927;SDS011;7036;50.834;4.718;2023-04-24T11:41:33;7.05;;;2.55;;
13927;SDS011;7036;50.834;4.718;2023-04-24T11:43:59;3.95;;;2.60;;
13927;SDS011;7036;50.834;4.718;2023-04-24T11:46:28;3.67;;;2.72;;
13927;SDS011;7036;50.834;4.718;2023-04-24T11:48:57;4.97;;;3.27;;
13927;SDS011;7036;50.834;4.718;2023-04-24T11:51:26;4.13;;;2.88;;
13927;SDS011;7036;50.834;4.718;2023-04-24T11:53:52;6.15;;;2.70;;
13927;SDS011;7036;50.834;4.718;2023-04-24T11:56:23;6.90;;;3.20;;
13927;SDS011;7036;50.834;4.718;2023-04-24T11:58:53;4.07;;;2.70;;
13927;SDS011;7036;50.834;4.718;2023-04-24T12:01:20;3.70;;;2.23;;
13927;SDS011;7036;50.834;4.718;2023-04-24T12:03:48;5.15;;;2.60;;
13927;SDS011;7036;50.834;4.718;2023-04-24T12:06:15;6.20;;;2.85;;
13927;SDS011;7036;50.834;4.718;2023-04-24T12:08:45;5.97;;;2.42;;
13927;SDS011;7036;50.834;4.718;2023-04-24T12:11:10;5.85;;;3.38;;
13927;SDS011;7036;50.834;4.718;2023-04-24T12:13:37;3.83;;;2.60;;
13927;SDS011;7036;50.834;4.718;2023-04-24T12:16:05;2.33;;;1.95;;
13927;SDS011;7036;50.834;4.718;2023-04-24T12:18:32;4.07;;;2.67;;
13927;SDS011;7036;50.834;4.718;2023-04-24T12:21:16;4.72;;;3.03;;
13927;SDS011;7036;50.834;4.718;2023-04-24T12:23:44;6.60;;;2.87;;
13927;SDS011;7036;50.834;4.718;2023-04-24T12:26:11;2.83;;;2.43;;
13927;SDS011;7036;50.834;4.718;2023-04-24T12:28:38;4.27;;;2.67;;
13927;SDS011;7036;50.834;4.718;2023-04-24T12:31:04;4.10;;;2.88;;
13927;SDS011;7036;50.834;4.718;2023-04-24T12:33:33;4.05;;;2.42;;
13927;SDS011;7036;50.834;4.718;2023-04-24T12:35:59;3.08;;;2.53;;
13927;SDS011;7036;50.834;4.718;2023-04-24T12:38:29;4.63;;;3.05;;
13927;SDS011;7036;50.834;4.718;2023-04-24T12:41:05;5.33;;;2.90;;
13927;SDS011;7036;50.834;4.718;2023-04-24T12:43:37;3.67;;;2.40;;
13927;SDS011;7036;50.834;4.718;2023-04-24T12:46:04;3.77;;;2.60;;
13927;SDS011;7036;50.834;4.718;2023-04-24T12:48:31;4.20;;;3.10;;
13927;SDS011;7036;50.834;4.718;2023-04-24T12:50:58;4.63;;;3.00;;
13927;SDS011;7036;50.834;4.718;2023-04-24T12:53:25;3.80;;;2.83;;
13927;SDS011;7036;50.834;4.718;2023-04-24T12:55:53;4.35;;;2.88;;
13927;SDS011;7036;50.834;4.718;2023-04-24T12:58:21;3.17;;;2.53;;
13927;SDS011;7036;50.834;4.718;2023-04-24T13:00:48;3.30;;;2.95;;
13927;SDS011;7036;50.834;4.718;2023-04-24T13:03:16;6.43;;;2.40;;
13927;SDS011;7036;50.834;4.718;2023-04-24T13:05:45;5.53;;;2.20;;
13927;SDS011;7036;50.834;4.718;2023-04-24T13:08:11;5.37;;;2.63;;
13927;SDS011;7036;50.834;4.718;2023-04-24T13:10:40;5.72;;;2.70;;
13927;SDS011;7036;50.834;4.718;2023-04-24T13:13:07;10.47;;;2.67;;
13927;SDS011;7036;50.834;4.718;2023-04-24T13:15:34;5.10;;;3.00;;
13927;SDS011;7036;50.834;4.718;2023-04-24T13:18:02;7.00;;;2.92;;
13927;SDS011;7036;50.834;4.718;2023-04-24T13:20:30;4.82;;;2.80;;
13927;SDS011;7036;50.834;4.718;2023-04-24T13:22:58;3.13;;;2.20;;
13927;SDS011;7036;50.834;4.718;2023-04-24T13:25:25;3.65;;;2.60;;
13927;SDS011;7036;50.834;4.718;2023-04-24T13:27:52;7.47;;;2.67;;
13927;SDS011;7036;50.834;4.718;2023-04-24T13:30:20;4.75;;;2.40;;
13927;SDS011;7036;50.834;4.718;2023-04-24T13:32:48;5.07;;;2.70;;
13927;SDS011;7036;50.834;4.718;2023-04-24T13:35:15;2.60;;;2.40;;
13927;SDS011;7036;50.834;4.718;2023-04-24T13:37:43;5.00;;;2.60;;
13927;SDS011;7036;50.834;4.718;2023-04-24T13:40:11;5.40;;;2.65;;
13927;SDS011;7036;50.834;4.718;2023-04-24T13:42:39;4.38;;;2.58;;
13927;SDS011;7036;50.834;4.718;2023-04-24T13:45:07;4.53;;;2.55;;
13927;SDS011;7036;50.834;4.718;2023-04-24T13:47:34;2.80;;;2.10;;
13927;SDS011;7036;50.834;4.718;2023-04-24T13:50:01;5.73;;;3.00;;
13927;SDS011;7036;50.834;4.718;2023-04-24T13:52:29;2.78;;;2.40;;
13927;SDS011;7036;50.834;4.718;2023-04-24T13:54:57;4.13;;;2.65;;
13927;SDS011;7036;50.834;4.718;2023-04-24T13:57:24;5.28;;;2.95;;
13927;SDS011;7036;50.834;4.718;2023-04-24T13:59:51;4.28;;;2.80;;
13927;SDS011;7036;50.834;4.718;2023-04-24T14:02:18;4.65;;;2.58;;
13927;SDS011;7036;50.834;4.718;2023-04-24T14:04:46;3.58;;;2.70;;
13927;SDS011;7036;50.834;4.718;2023-04-24T14:07:13;2.35;;;1.98;;
13927;SDS011;7036;50.834;4.718;2023-04-24T14:09:40;6.15;;;2.75;;
13927;SDS011;7036;50.834;4.718;2023-04-24T14:12:08;5.63;;;2.70;;
13927;SDS011;7036;50.834;4.718;2023-04-24T14:14:36;3.05;;;2.10;;
13927;SDS011;7036;50.834;4.718;2023-04-24T14:17:04;4.20;;;2.10;;
13927;SDS011;7036;50.834;4.718;2023-04-24T14:19:31;4.55;;;2.70;;
13927;SDS011;7036;50.834;4.718;2023-04-24T14:21:59;6.15;;;2.67;;
13927;SDS011;7036;50.834;4.718;2023-04-24T14:24:25;3.40;;;2.40;;
13927;SDS011;7036;50.834;4.718;2023-04-24T14:26:53;4.00;;;2.47;;
13927;SDS011;7036;50.834;4.718;2023-04-24T14:29:21;2.75;;;2.55;;
13927;SDS011;7036;50.834;4.718;2023-04-24T14:31:48;2.90;;;2.13;;
13927;SDS011;7036;50.834;4.718;2023-04-24T14:34:15;3.95;;;2.53;;
13927;SDS011;7036;50.834;4.718;2023-04-24T14:36:43;6.13;;;2.28;;
13927;SDS011;7036;50.834;4.718;2023-04-24T14:39:11;2.50;;;2.03;;
13927;SDS011;7036;50.834;4.718;2023-04-24T14:41:40;3.33;;;2.42;;
13927;SDS011;7036;50.834;4.718;2023-04-24T14:44:07;2.67;;;2.30;;
13927;SDS011;7036;50.834;4.718;2023-04-24T14:46:34;2.90;;;2.43;;
13927;SDS011;7036;50.834;4.718;2023-04-24T14:49:02;4.47;;;2.60;;
13927;SDS011;7036;50.834;4.718;2023-04-24T14:51:29;4.32;;;1.90;;
13927;SDS011;7036;50.834;4.718;2023-04-24T14:53:57;2.95;;;2.25;;
13927;SDS011;7036;50.834;4.718;2023-04-24T14:56:25;3.05;;;2.20;;
13927;SDS011;7036;50.834;4.718;2023-04-24T14:58:53;5.38;;;2.75;;
13927;SDS011;7036;50.834;4.718;2023-04-24T15:01:21;3.60;;;1.88;;
13927;SDS011;7036;50.834;4.718;2023-04-24T15:03:49;2.92;;;2.00;;
13927;SDS011;7036;50.834;4.718;2023-04-24T15:06:16;3.10;;;2.25;;
13927;SDS011;7036;50.834;4.718;2023-04-24T15:08:43;4.35;;;2.30;;
13927;SDS011;7036;50.834;4.718;2023-04-24T15:11:11;2.80;;;2.03;;